Emslake — V2FL4 — position and weather

sailwx.info

Track history (hours):
 
Tides and Currents Weather Stations Pressure Air Temp Water Temp Dewpoint Dewpoint Depression Visibility Wind Speed Wind Dir Waves Ship Positions

Emslake

Last reported at 2015-Mar-31 04:32 UTC. Time now 2015-Mar-31 05:31 UTC.
Position N 54°17' E 009°40'.

Length 100 m; draft 5.9 m.

Type: Cargo ship. MMSI: 305712000.

Date/timePositionNaut miles runAvg speedWind from/ knotsBaromVisibWave heightAir tempDewpointWater temp
2015-Mar-31 04:32N 54°17' E 009°40'5 4.8
2015-Mar-31 03:33N 54°21' E 009°46'7 7.2
2015-Mar-31 02:33N 54°21' E 009°58'6 6.3
2015-Mar-31 01:33N 54°22' E 010°08'1 0.6
2015-Mar-31 00:34N 54°22' E 010°09'9 8.5
2015-Mar-30 23:33N 54°29' E 010°17'9 9.2
2015-Mar-30 22:33N 54°33' E 010°31'10 9.6
2015-Mar-30 21:30N 54°35' E 010°48'8 8.3
2015-Mar-30 20:33N 54°36' E 011°02'7 7.3
2015-Mar-30 19:33N 54°35' E 011°14'7 6.9
2015-Mar-30 18:34N 54°32' E 011°25'7 7.1
2015-Mar-30 17:33N 54°30' E 011°36'7 7.3
2015-Mar-30 16:33N 54°28' E 011°49'7 7.1
2015-Mar-30 15:33N 54°27' E 012°01'6 6.1
2015-Mar-30 14:33N 54°29' E 012°11'9 8.6
2015-Mar-30 13:33N 54°37' E 012°16'9 8.8
2015-Mar-30 12:33N 54°42' E 012°28'9 9.0
2015-Mar-30 11:34N 54°47' E 012°41'9 8.7
2015-Mar-30 10:33N 54°50' E 012°55'20 8.6
2015-Mar-30 08:16N 54°57' E 013°27'6 8.6
2015-Mar-30 07:33N 54°59' E 013°37'26 8.5
2015-Mar-30 04:29N 55°13' E 014°16'1010.2
2015-Mar-30 03:33N 55°20' E 014°27'1010.3
2015-Mar-30 02:32N 55°27' E 014°39'1010.2
2015-Mar-30 01:33N 55°33' E 014°54'131 8.7
2015-Mar-29 10:31N 57°11' E 017°29'  
2015-Mar-22 21:06N 57°12' E 017°37'11211.3
2015-Mar-22 11:12N 55°42' E 015°37'811.7
2015-Mar-22 10:33N 55°38' E 015°26'1111.5
2015-Mar-22 09:33N 55°32' E 015°08'1111.4
2015-Mar-22 08:33N 55°26' E 014°51'1111.3
2015-Mar-22 07:33N 55°19' E 014°35'1111.5
2015-Mar-22 06:33N 55°11' E 014°22'1111.2
2015-Mar-22 05:33N 55°02' E 014°10'1111.1
2015-Mar-22 04:33N 54°58' E 013°52'1110.8
2015-Mar-22 03:33N 54°54' E 013°34'1110.5
2015-Mar-22 02:33N 54°50' E 013°17'1010.0
2015-Mar-22 01:33N 54°46' E 013°01'1010.0
2015-Mar-22 00:33N 54°42' E 012°45'10 9.9
2015-Mar-21 23:33N 54°36' E 012°31'9 9.1
2015-Mar-21 22:33N 54°31' E 012°18'8 8.2
2015-Mar-21 21:33N 54°24' E 012°10'8 7.7
2015-Mar-21 20:34N 54°24' E 011°57'8 7.9
2015-Mar-21 19:33N 54°25' E 011°44'9 8.8
2015-Mar-21 18:33N 54°29' E 011°30'9 8.6
2015-Mar-21 17:33N 54°33' E 011°17'8 7.8
2015-Mar-21 16:33N 54°35' E 011°04'9 9.3
2015-Mar-21 15:32N 54°34' E 010°47'1010.0
2015-Mar-21 14:34N 54°32' E 010°31'10 9.7
2015-Mar-21 13:34N 54°28' E 010°16'7 7.1
2015-Mar-21 12:33N 54°22' E 010°08'3 2.7
2015-Mar-21 11:34N 54°22' E 010°04'5 4.9
2015-Mar-21 10:34N 54°21' E 009°56'6 5.9
2015-Mar-21 09:34N 54°21' E 009°45'6 6.4
2015-Mar-21 08:33N 54°16' E 009°38'6 5.7
2015-Mar-21 07:33N 54°12' E 009°32'8 8.2
2015-Mar-21 06:33N 54°07' E 009°20'8 8.4
2015-Mar-21 05:33N 53°59' E 009°17'7 7.4
2015-Mar-21 04:33N 53°54' E 009°09'  
Track history (hours):
 
Tides and Currents Weather Stations Pressure Air Temp Water Temp Dewpoint Dewpoint Depression Visibility Wind Speed Wind Dir Waves Ship Positions

Emslake

Last reported at 2015-Mar-31 04:32 UTC. Time now 2015-Mar-31 05:31 UTC.
Position N 54°17' E 009°40'.

Length 100 m; draft 5.9 m.

Type: Cargo ship. MMSI: 305712000.

Date/timePositionNaut miles runAvg speedWind from/ knotsBaromVisibWave heightAir tempDewpointWater temp
2015-Mar-31 04:32N 54°17' E 009°40'5 4.8
2015-Mar-31 03:33N 54°21' E 009°46'7 7.2
2015-Mar-31 02:33N 54°21' E 009°58'6 6.3
2015-Mar-31 01:33N 54°22' E 010°08'1 0.6
2015-Mar-31 00:34N 54°22' E 010°09'9 8.5
2015-Mar-30 23:33N 54°29' E 010°17'9 9.2
2015-Mar-30 22:33N 54°33' E 010°31'10 9.6
2015-Mar-30 21:30N 54°35' E 010°48'8 8.3
2015-Mar-30 20:33N 54°36' E 011°02'7 7.3
2015-Mar-30 19:33N 54°35' E 011°14'7 6.9
2015-Mar-30 18:34N 54°32' E 011°25'7 7.1
2015-Mar-30 17:33N 54°30' E 011°36'7 7.3
2015-Mar-30 16:33N 54°28' E 011°49'7 7.1
2015-Mar-30 15:33N 54°27' E 012°01'6 6.1
2015-Mar-30 14:33N 54°29' E 012°11'9 8.6
2015-Mar-30 13:33N 54°37' E 012°16'9 8.8
2015-Mar-30 12:33N 54°42' E 012°28'9 9.0
2015-Mar-30 11:34N 54°47' E 012°41'9 8.7
2015-Mar-30 10:33N 54°50' E 012°55'20 8.6
2015-Mar-30 08:16N 54°57' E 013°27'6 8.6
2015-Mar-30 07:33N 54°59' E 013°37'26 8.5
2015-Mar-30 04:29N 55°13' E 014°16'1010.2
2015-Mar-30 03:33N 55°20' E 014°27'1010.3
2015-Mar-30 02:32N 55°27' E 014°39'1010.2
2015-Mar-30 01:33N 55°33' E 014°54'131 8.7
2015-Mar-29 10:31N 57°11' E 017°29'  
2015-Mar-22 21:06N 57°12' E 017°37'11211.3
2015-Mar-22 11:12N 55°42' E 015°37'811.7
2015-Mar-22 10:33N 55°38' E 015°26'1111.5
2015-Mar-22 09:33N 55°32' E 015°08'1111.4
2015-Mar-22 08:33N 55°26' E 014°51'1111.3
2015-Mar-22 07:33N 55°19' E 014°35'1111.5
2015-Mar-22 06:33N 55°11' E 014°22'1111.2
2015-Mar-22 05:33N 55°02' E 014°10'1111.1
2015-Mar-22 04:33N 54°58' E 013°52'1110.8
2015-Mar-22 03:33N 54°54' E 013°34'1110.5
2015-Mar-22 02:33N 54°50' E 013°17'1010.0
2015-Mar-22 01:33N 54°46' E 013°01'1010.0
2015-Mar-22 00:33N 54°42' E 012°45'10 9.9
2015-Mar-21 23:33N 54°36' E 012°31'9 9.1
2015-Mar-21 22:33N 54°31' E 012°18'8 8.2
2015-Mar-21 21:33N 54°24' E 012°10'8 7.7
2015-Mar-21 20:34N 54°24' E 011°57'8 7.9
2015-Mar-21 19:33N 54°25' E 011°44'9 8.8
2015-Mar-21 18:33N 54°29' E 011°30'9 8.6
2015-Mar-21 17:33N 54°33' E 011°17'8 7.8
2015-Mar-21 16:33N 54°35' E 011°04'9 9.3
2015-Mar-21 15:32N 54°34' E 010°47'1010.0
2015-Mar-21 14:34N 54°32' E 010°31'10 9.7
2015-Mar-21 13:34N 54°28' E 010°16'7 7.1
2015-Mar-21 12:33N 54°22' E 010°08'3 2.7
2015-Mar-21 11:34N 54°22' E 010°04'5 4.9
2015-Mar-21 10:34N 54°21' E 009°56'6 5.9
2015-Mar-21 09:34N 54°21' E 009°45'6 6.4
2015-Mar-21 08:33N 54°16' E 009°38'6 5.7
2015-Mar-21 07:33N 54°12' E 009°32'8 8.2
2015-Mar-21 06:33N 54°07' E 009°20'8 8.4
2015-Mar-21 05:33N 53°59' E 009°17'7 7.4
2015-Mar-21 04:33N 53°54' E 009°09'  

Dump ship's entire track history